Time;durP1;ratioP1;P1;durP2;ratioP2;P2;SDS_P1;SDS_P2;PMS_P1;PMS_P2;Temp;Humidity;BMP_temperature;BMP_pressure;BME280_temperature;BME280_humidity;BME280_pressure;Samples;Min_cycle;Max_cycle;Signal;HPM_P1;HPM_P2
2023/02/26 00:00:29;;;;;;;3.13;0.90;;;-0.50;99.90;;;;;;4162123;28;20447;-75
2023/02/26 00:02:31;;;;;;;2.40;1.10;;;-0.50;99.90;;;;;;4177289;28;20904;-76
2023/02/26 00:04:34;;;;;;;2.63;1.00;;;-0.50;99.90;;;;;;4178498;28;21398;-75
2023/02/26 00:06:51;;;;;;;3.03;0.80;;;-0.50;99.90;;;;;;4176305;28;20907;-74
2023/02/26 00:08:53;;;;;;;3.13;1.23;;;-0.50;99.90;;;;;;4178517;28;20457;-75
2023/02/26 00:10:56;;;;;;;2.50;1.23;;;-0.50;99.90;;;;;;4177992;28;20562;-76
2023/02/26 00:12:58;;;;;;;1.80;1.07;;;-0.50;99.90;;;;;;4179799;28;20540;-75
2023/02/26 00:15:00;;;;;;;2.40;0.97;;;-0.50;99.90;;;;;;4179822;28;20476;-76
2023/02/26 00:17:24;;;;;;;1.73;0.90;;;-0.50;99.90;;;;;;4176536;28;20462;-75
2023/02/26 00:19:26;;;;;;;4.33;1.10;;;-0.50;99.90;;;;;;4175609;28;20543;-75
2023/02/26 00:21:31;;;;;;;3.13;1.33;;;-0.50;99.90;;;;;;4177483;28;20545;-76
2023/02/26 00:23:34;;;;;;;3.00;1.17;;;-0.50;99.90;;;;;;4177432;28;20512;-75
2023/02/26 00:25:35;;;;;;;5.07;1.13;;;-0.50;99.90;;;;;;4172071;28;20511;-75
2023/02/26 00:27:38;;;;;;;1.37;0.90;;;-0.50;99.90;;;;;;4175768;28;20585;-75
2023/02/26 00:29:40;;;;;;;2.97;1.27;;;-0.50;99.90;;;;;;4160994;28;20530;-75
2023/02/26 00:31:43;;;;;;;3.67;1.30;;;-0.50;99.90;;;;;;4178295;28;20489;-75
2023/02/26 00:33:45;;;;;;;1.77;1.00;;;-0.50;99.90;;;;;;4178199;28;20481;-76
2023/02/26 00:35:48;;;;;;;2.03;1.17;;;-0.60;99.90;;;;;;4176127;28;20563;-75
2023/02/26 00:38:01;;;;;;;1.53;0.83;;;-0.50;99.90;;;;;;4179030;28;21040;-75
2023/02/26 00:40:15;;;;;;;1.67;1.00;;;-0.50;99.90;;;;;;4175968;28;20532;-77
2023/02/26 00:42:17;;;;;;;2.97;1.10;;;-0.50;99.90;;;;;;4176234;28;20449;-77
2023/02/26 00:44:20;;;;;;;8.43;1.23;;;-0.50;99.90;;;;;;4177678;28;20881;-74
2023/02/26 00:46:30;;;;;;;2.33;0.90;;;-0.50;99.90;;;;;;4177519;28;20493;-76
2023/02/26 00:48:45;;;;;;;2.90;0.90;;;-0.50;99.90;;;;;;4178253;28;20525;-76
2023/02/26 00:50:55;;;;;;;3.60;1.00;;;-0.50;99.90;;;;;;4178004;28;20476;-75
2023/02/26 00:53:08;;;;;;;5.57;0.93;;;-0.60;99.90;;;;;;4176575;28;20535;-74
2023/02/26 00:55:10;;;;;;;4.57;1.07;;;-0.50;99.90;;;;;;4172904;28;21279;-76
2023/02/26 00:57:12;;;;;;;2.80;1.00;;;-0.50;99.90;;;;;;4177799;28;20954;-75
2023/02/26 00:59:14;;;;;;;3.50;1.10;;;-0.50;99.90;;;;;;4177530;28;20489;-75
2023/02/26 01:01:16;;;;;;;3.03;1.33;;;-0.50;99.90;;;;;;4176375;28;20478;-75
2023/02/26 01:03:18;;;;;;;4.33;1.00;;;-0.50;99.90;;;;;;4178769;28;20998;-75
2023/02/26 01:05:21;;;;;;;1.97;1.10;;;-0.50;99.90;;;;;;4176418;28;20509;-76
2023/02/26 01:07:24;;;;;;;3.53;1.10;;;-0.50;99.90;;;;;;4178535;28;20521;-75
2023/02/26 01:09:30;;;;;;;3.27;1.10;;;-0.60;99.90;;;;;;4177829;28;20545;-75
2023/02/26 01:11:33;;;;;;;2.17;0.90;;;-0.60;99.90;;;;;;4159444;28;20462;-79
2023/02/26 01:13:35;;;;;;;1.90;1.00;;;-0.60;99.90;;;;;;4178565;28;20974;-76
2023/02/26 01:15:37;;;;;;;4.07;0.93;;;-0.50;99.90;;;;;;4177015;28;20525;-78
2023/02/26 01:17:47;;;;;;;5.60;1.20;;;-0.60;99.90;;;;;;4178628;28;20527;-78
2023/02/26 01:19:53;;;;;;;6.67;1.57;;;-0.50;99.90;;;;;;4174867;28;20584;-76
2023/02/26 01:22:01;;;;;;;3.10;1.20;;;-0.60;99.90;;;;;;4176879;28;20503;-74
2023/02/26 01:24:08;;;;;;;4.60;1.27;;;-0.60;99.90;;;;;;4177163;28;20531;-75
2023/02/26 01:26:18;;;;;;;2.97;1.23;;;-0.60;99.90;;;;;;4176659;28;20548;-76
2023/02/26 01:28:21;;;;;;;3.57;1.17;;;-0.50;99.90;;;;;;4176662;28;20478;-75
2023/02/26 01:30:25;;;;;;;2.10;1.10;;;-0.60;99.90;;;;;;4177105;28;20479;-76
2023/02/26 01:32:35;;;;;;;2.63;1.13;;;-0.60;99.90;;;;;;4157562;28;20991;-76
2023/02/26 01:34:45;;;;;;;4.30;1.10;;;-0.60;99.90;;;;;;4175747;28;20971;-75
2023/02/26 01:36:53;;;;;;;4.40;1.20;;;-0.60;99.90;;;;;;4174806;28;20465;-76
2023/02/26 01:39:06;;;;;;;4.03;1.23;;;-0.60;99.90;;;;;;4175217;28;20458;-76
2023/02/26 01:41:18;;;;;;;4.40;1.47;;;-0.60;99.90;;;;;;4175901;28;20475;-76
2023/02/26 01:43:28;;;;;;;2.63;1.00;;;-0.60;99.90;;;;;;4176544;28;21004;-75
2023/02/26 01:45:34;;;;;;;3.57;1.40;;;-0.50;99.90;;;;;;4176236;28;20478;-76
2023/02/26 01:47:43;;;;;;;2.93;1.20;;;-0.60;99.90;;;;;;4177290;28;20493;-76
2023/02/26 01:49:45;;;;;;;3.57;1.43;;;-0.60;99.90;;;;;;4177104;28;20555;-78
2023/02/26 01:51:50;;;;;;;2.07;1.17;;;-0.60;99.90;;;;;;4176104;28;20558;-75
2023/02/26 01:53:52;;;;;;;2.17;1.43;;;-0.60;99.90;;;;;;4175079;28;20909;-77
2023/02/26 01:55:58;;;;;;;2.40;1.23;;;-0.60;99.90;;;;;;4177190;28;20474;-75
2023/02/26 01:58:02;;;;;;;3.53;1.40;;;-0.60;99.90;;;;;;4179117;28;20854;-75
2023/02/26 02:00:06;;;;;;;4.77;1.30;;;-0.60;99.90;;;;;;4176939;28;20467;-76
2023/02/26 02:02:10;;;;;;;4.10;1.50;;;-0.60;99.90;;;;;;4175217;28;20463;-77
2023/02/26 02:04:14;;;;;;;4.03;2.00;;;-0.60;99.90;;;;;;4177322;28;21142;-75
2023/02/26 02:06:20;;;;;;;5.03;1.40;;;-0.60;99.90;;;;;;4175496;28;20465;-78
2023/02/26 02:08:22;;;;;;;1.93;1.33;;;-0.60;99.90;;;;;;4176527;28;20491;-75
2023/02/26 02:10:24;;;;;;;3.90;1.60;;;-0.60;99.90;;;;;;4175922;28;21047;-77
2023/02/26 02:12:38;;;;;;;3.17;1.70;;;-0.60;99.90;;;;;;4176747;28;20512;-76
2023/02/26 02:14:55;;;;;;;4.53;1.53;;;-0.60;99.90;;;;;;4174057;28;20512;-78
2023/02/26 02:17:02;;;;;;;3.47;1.70;;;-0.60;99.90;;;;;;4176028;28;20473;-78
2023/02/26 02:19:18;;;;;;;4.33;1.60;;;-0.60;99.90;;;;;;4177550;28;20461;-74
2023/02/26 02:21:47;;;;;;;6.63;1.80;;;-0.60;99.90;;;;;;4173595;28;20494;-75
2023/02/26 02:23:55;;;;;;;4.03;1.80;;;-0.60;99.90;;;;;;4177386;28;20563;-75
2023/02/26 02:26:46;;;;;;;2.93;1.60;;;-0.60;99.90;;;;;;4175766;28;20490;-76
2023/02/26 02:29:17;;;;;;;3.30;1.50;;;-0.60;99.90;;;;;;4172748;28;20600;-74
2023/02/26 02:31:24;;;;;;;3.00;1.33;;;-0.60;99.90;;;;;;4175770;28;20448;-75
2023/02/26 02:33:32;;;;;;;2.73;1.33;;;-0.60;99.90;;;;;;4172449;28;20470;-76
2023/02/26 02:35:38;;;;;;;3.13;1.40;;;-0.50;99.90;;;;;;4176973;28;20573;-76
2023/02/26 02:37:46;;;;;;;4.30;1.40;;;-0.60;99.90;;;;;;4175328;28;21394;-76
2023/02/26 02:39:51;;;;;;;2.60;1.40;;;-0.60;99.90;;;;;;4176426;28;20898;-76
2023/02/26 02:41:57;;;;;;;2.03;1.20;;;-0.60;99.90;;;;;;4177393;28;20461;-75
2023/02/26 02:44:02;;;;;;;5.23;1.60;;;-0.60;99.90;;;;;;4173189;28;20527;-75
2023/02/26 02:46:07;;;;;;;1.80;1.20;;;-0.60;99.90;;;;;;4176193;28;20512;-75
2023/02/26 02:48:16;;;;;;;2.87;1.40;;;-0.60;99.90;;;;;;4176234;28;20583;-76
2023/02/26 02:50:22;;;;;;;2.00;1.33;;;-0.60;99.90;;;;;;4175485;28;21294;-76
2023/02/26 02:52:29;;;;;;;2.80;1.40;;;-0.60;99.90;;;;;;4175545;28;21257;-76
2023/02/26 02:54:38;;;;;;;2.80;1.30;;;-0.60;99.90;;;;;;4176675;28;20544;-75
2023/02/26 02:56:45;;;;;;;4.40;1.43;;;-0.50;99.90;;;;;;4177394;28;20469;-75
2023/02/26 02:58:54;;;;;;;3.53;1.70;;;-0.70;99.90;;;;;;4175678;28;20457;-75
2023/02/26 03:01:01;;;;;;;3.77;1.40;;;-0.70;99.90;;;;;;4174321;28;20498;-74
2023/02/26 03:03:09;;;;;;;4.57;1.53;;;-0.70;99.90;;;;;;4175459;28;20472;-75
2023/02/26 03:05:13;;;;;;;2.17;1.23;;;-0.70;99.90;;;;;;4175507;28;21199;-75
2023/02/26 03:07:16;;;;;;;3.70;1.50;;;-0.70;99.90;;;;;;4176251;28;20998;-76
2023/02/26 03:09:18;;;;;;;3.23;1.60;;;-0.70;99.90;;;;;;4175083;28;20486;-74
2023/02/26 03:11:20;;;;;;;3.67;1.33;;;-0.70;99.90;;;;;;4175708;28;20484;-75
2023/02/26 03:13:25;;;;;;;12.93;1.77;;;-0.70;99.90;;;;;;4169938;28;20465;-76
2023/02/26 03:15:36;;;;;;;4.80;1.83;;;-0.80;99.90;;;;;;4175491;28;20570;-75
2023/02/26 03:17:46;;;;;;;2.20;1.60;;;-0.80;99.90;;;;;;4176792;28;20553;-75
2023/02/26 03:20:03;;;;;;;3.57;1.60;;;-0.80;99.90;;;;;;4175472;28;20467;-73
2023/02/26 03:22:12;;;;;;;3.20;1.50;;;-0.80;99.90;;;;;;4176282;28;20457;-76
2023/02/26 03:24:19;;;;;;;3.27;1.70;;;-0.80;99.90;;;;;;4173692;28;20506;-76
2023/02/26 03:26:29;;;;;;;3.43;2.00;;;-0.80;99.90;;;;;;4173382;28;20447;-75
2023/02/26 03:28:38;;;;;;;3.70;2.33;;;-0.80;99.90;;;;;;4176288;28;20540;-75
2023/02/26 03:30:45;;;;;;;4.30;2.00;;;-0.80;99.90;;;;;;4175791;28;20863;-76
2023/02/26 03:32:56;;;;;;;5.13;1.80;;;-0.80;99.90;;;;;;4176713;28;20463;-75
2023/02/26 03:35:03;;;;;;;5.50;1.90;;;-0.80;99.90;;;;;;4157824;28;20471;-76
2023/02/26 03:37:10;;;;;;;4.67;1.70;;;-0.80;99.90;;;;;;4176841;28;20456;-75
2023/02/26 03:39:18;;;;;;;4.40;2.03;;;-0.80;99.90;;;;;;4179048;28;20477;-75
2023/02/26 03:41:25;;;;;;;2.53;1.50;;;-0.80;99.90;;;;;;4178103;28;20477;-75
2023/02/26 03:43:33;;;;;;;5.87;1.80;;;-0.80;99.90;;;;;;4178328;28;20891;-75
2023/02/26 03:45:38;;;;;;;2.83;1.67;;;-0.80;99.90;;;;;;4177464;28;20519;-74
2023/02/26 03:47:42;;;;;;;5.63;1.97;;;-0.90;99.90;;;;;;4178734;28;20563;-75
2023/02/26 03:49:47;;;;;;;4.70;1.90;;;-0.80;99.90;;;;;;4177813;28;20572;-76
2023/02/26 03:51:50;;;;;;;5.47;2.00;;;-0.80;99.90;;;;;;4175850;28;20538;-75
2023/02/26 03:53:58;;;;;;;5.73;2.13;;;-0.90;99.90;;;;;;4177517;28;21212;-74
2023/02/26 03:56:06;;;;;;;4.93;1.90;;;-0.90;99.90;;;;;;4177989;28;20487;-74
2023/02/26 03:58:08;;;;;;;2.80;1.60;;;-0.90;99.90;;;;;;4178503;28;20491;-74
2023/02/26 04:00:11;;;;;;;7.10;2.10;;;-0.90;99.90;;;;;;4177603;28;20599;-73
2023/02/26 04:02:18;;;;;;;4.80;1.83;;;-0.90;99.90;;;;;;4161556;28;20543;-75
2023/02/26 04:04:26;;;;;;;5.60;1.60;;;-0.90;99.90;;;;;;4179370;28;20492;-75
2023/02/26 04:06:29;;;;;;;4.53;1.67;;;-0.90;99.90;;;;;;4179099;28;20821;-75
2023/02/26 04:08:31;;;;;;;5.07;2.03;;;-0.90;99.90;;;;;;4177575;28;20531;-75
2023/02/26 04:10:41;;;;;;;2.43;1.50;;;-0.90;99.90;;;;;;4178361;28;20489;-75
2023/02/26 04:12:43;;;;;;;2.63;1.37;;;-0.90;99.90;;;;;;4178750;28;20464;-74
2023/02/26 04:14:45;;;;;;;2.37;1.50;;;-0.90;99.90;;;;;;4178638;28;20476;-74
2023/02/26 04:16:47;;;;;;;2.80;1.40;;;-1.00;99.90;;;;;;4179263;28;20890;-74
2023/02/26 04:18:49;;;;;;;2.17;1.30;;;-0.90;99.90;;;;;;4177616;28;20535;-75
2023/02/26 04:20:51;;;;;;;3.20;1.40;;;-1.00;99.90;;;;;;4178717;28;20541;-76
2023/02/26 04:22:52;;;;;;;3.60;1.43;;;-0.90;99.90;;;;;;4178113;28;20455;-75
2023/02/26 04:24:54;;;;;;;2.67;1.50;;;-1.00;99.90;;;;;;4154638;28;20611;-76
2023/02/26 04:26:58;;;;;;;5.40;1.33;;;-1.00;99.90;;;;;;4175015;28;20864;-76
2023/02/26 04:28:59;;;;;;;4.23;1.50;;;-1.00;99.90;;;;;;4179445;28;20543;-76
2023/02/26 04:31:01;;;;;;;3.60;1.40;;;-1.00;99.90;;;;;;4180882;28;20507;-76
2023/02/26 04:33:03;;;;;;;2.63;1.33;;;-1.00;99.90;;;;;;4177388;28;20485;-75
2023/02/26 04:35:05;;;;;;;1.97;1.23;;;-0.80;99.90;;;;;;4176423;28;20478;-76
2023/02/26 04:37:07;;;;;;;4.70;1.47;;;-1.00;99.90;;;;;;4178652;28;20920;-75
2023/02/26 04:39:09;;;;;;;4.87;1.67;;;-1.00;99.90;;;;;;4160892;28;20451;-74
2023/02/26 04:41:11;;;;;;;5.20;1.43;;;-1.00;99.90;;;;;;4177159;28;20454;-74
2023/02/26 04:43:14;;;;;;;4.47;1.47;;;-1.00;99.90;;;;;;4175821;28;20549;-73
2023/02/26 04:45:17;;;;;;;4.83;1.20;;;-1.00;99.90;;;;;;4177909;28;20580;-75
2023/02/26 04:47:18;;;;;;;6.20;1.53;;;-1.00;99.90;;;;;;4176397;28;20474;-75
2023/02/26 04:49:20;;;;;;;4.20;1.27;;;-1.00;99.90;;;;;;4176894;28;21066;-75
2023/02/26 04:51:22;;;;;;;4.03;1.43;;;-1.00;99.90;;;;;;4175790;28;20465;-75
2023/02/26 04:53:24;;;;;;;5.33;1.40;;;-1.00;99.90;;;;;;4176211;28;20519;-74
2023/02/26 04:55:26;;;;;;;5.73;1.27;;;-1.00;99.90;;;;;;4176244;28;20483;-74
2023/02/26 04:57:28;;;;;;;4.70;1.40;;;-1.00;99.90;;;;;;4175772;28;20488;-74
2023/02/26 04:59:31;;;;;;;2.27;1.37;;;-0.90;99.90;;;;;;4177204;28;20524;-73
2023/02/26 05:01:33;;;;;;;5.43;1.10;;;-0.90;99.90;;;;;;4176203;28;20470;-74
2023/02/26 05:03:35;;;;;;;3.37;1.10;;;-0.90;99.90;;;;;;4177046;28;21049;-74
2023/02/26 05:05:37;;;;;;;2.70;1.07;;;-0.90;99.90;;;;;;4177426;28;20481;-75
2023/02/26 05:07:39;;;;;;;2.37;1.17;;;-0.90;99.90;;;;;;4177086;28;20456;-74
2023/02/26 05:09:41;;;;;;;1.87;0.90;;;-0.90;99.90;;;;;;4177691;28;20513;-75
2023/02/26 05:11:43;;;;;;;1.60;1.20;;;-0.90;99.90;;;;;;4177588;28;20975;-74
2023/02/26 05:13:45;;;;;;;2.90;1.10;;;-0.90;99.90;;;;;;4176374;28;20907;-74
2023/02/26 05:15:48;;;;;;;3.33;1.20;;;-0.90;99.90;;;;;;4177103;28;20561;-74
2023/02/26 05:17:50;;;;;;;3.23;1.10;;;-0.90;99.90;;;;;;4177496;28;21171;-75
2023/02/26 05:19:52;;;;;;;2.67;1.10;;;-0.90;99.90;;;;;;4178224;28;20499;-75
2023/02/26 05:21:54;;;;;;;2.80;1.07;;;-0.90;99.90;;;;;;4175874;28;20542;-74
2023/02/26 05:23:56;;;;;;;6.77;0.80;;;-0.90;99.90;;;;;;4177963;28;20581;-75
2023/02/26 05:25:58;;;;;;;3.57;1.10;;;-0.90;99.90;;;;;;4177294;28;21036;-75
2023/02/26 05:28:00;;;;;;;2.87;0.90;;;-0.90;99.90;;;;;;4176880;28;20833;-74
2023/02/26 05:30:03;;;;;;;1.50;0.90;;;-1.00;99.90;;;;;;4174915;28;20488;-74
2023/02/26 05:32:06;;;;;;;1.63;0.97;;;-0.90;99.90;;;;;;4176090;28;20461;-74
2023/02/26 05:34:08;;;;;;;1.80;1.00;;;-0.90;99.90;;;;;;4175022;28;20486;-73
2023/02/26 05:36:10;;;;;;;3.93;0.80;;;-1.00;99.90;;;;;;4177542;28;20466;-75
2023/02/26 05:38:15;;;;;;;2.57;0.90;;;-1.00;99.90;;;;;;4175841;28;20556;-74
2023/02/26 05:40:17;;;;;;;1.93;0.90;;;-1.00;99.90;;;;;;4176649;28;20534;-75
2023/02/26 05:42:19;;;;;;;2.53;0.90;;;-1.00;99.90;;;;;;4176888;28;20533;-74
2023/02/26 05:44:21;;;;;;;2.73;1.10;;;-1.00;99.90;;;;;;4175860;28;20468;-75
2023/02/26 05:46:23;;;;;;;2.90;0.80;;;-0.90;99.90;;;;;;4175467;28;20553;-76
2023/02/26 05:48:27;;;;;;;2.70;1.30;;;-1.00;99.90;;;;;;4155774;28;20490;-75
2023/02/26 05:50:29;;;;;;;3.50;1.10;;;-1.00;99.90;;;;;;4176978;28;20481;-75
2023/02/26 05:52:31;;;;;;;1.03;0.60;;;-1.00;99.90;;;;;;4175579;28;20485;-76
2023/02/26 05:54:33;;;;;;;4.30;1.00;;;-1.00;99.90;;;;;;4184895;28;20450;-75
2023/02/26 05:56:35;;;;;;;3.03;1.00;;;-1.00;99.90;;;;;;4175497;28;20438;-74
2023/02/26 05:58:37;;;;;;;1.93;0.80;;;-1.00;99.90;;;;;;4176259;28;20459;-74
2023/02/26 06:00:39;;;;;;;3.20;1.00;;;-1.00;99.90;;;;;;4174148;28;20552;-75
2023/02/26 06:02:41;;;;;;;2.53;0.80;;;-1.00;99.90;;;;;;4176110;28;20544;-75
2023/02/26 06:04:44;;;;;;;3.90;0.97;;;-1.00;99.90;;;;;;4174584;28;20500;-74
2023/02/26 06:06:46;;;;;;;0.90;0.60;;;-1.00;99.90;;;;;;4175690;28;20535;-74
2023/02/26 06:08:48;;;;;;;4.00;0.80;;;-1.00;99.90;;;;;;4175259;28;20560;-75
2023/02/26 06:10:50;;;;;;;1.13;0.80;;;-1.00;99.90;;;;;;4173069;28;20537;-75
2023/02/26 06:12:52;;;;;;;4.37;1.00;;;-0.90;99.90;;;;;;4175527;28;20827;-74
2023/02/26 06:14:54;;;;;;;1.83;0.90;;;-0.90;99.90;;;;;;4175019;28;20487;-75
2023/02/26 06:16:56;;;;;;;2.33;0.80;;;-0.90;99.90;;;;;;4175698;28;20975;-74
2023/02/26 06:18:58;;;;;;;2.57;0.93;;;-0.90;99.90;;;;;;4171769;28;20557;-74
2023/02/26 06:21:02;;;;;;;6.33;1.07;;;-0.90;99.90;;;;;;4176877;28;20489;-74
2023/02/26 06:23:04;;;;;;;2.23;0.80;;;-1.00;99.90;;;;;;4176172;28;20832;-74
2023/02/26 06:25:07;;;;;;;3.40;1.50;;;-1.00;99.90;;;;;;4176423;28;20572;-73
2023/02/26 06:27:08;;;;;;;8.37;2.60;;;-0.90;99.90;;;;;;4177554;28;20493;-75
2023/02/26 06:29:10;;;;;;;3.77;1.50;;;-0.90;99.90;;;;;;4176171;28;20492;-74
2023/02/26 06:31:12;;;;;;;2.20;1.10;;;-0.90;99.90;;;;;;4159678;28;20534;-74
2023/02/26 06:33:14;;;;;;;5.17;1.20;;;-0.90;99.90;;;;;;4177220;28;20497;-74
2023/02/26 06:35:16;;;;;;;3.23;0.90;;;-0.90;99.90;;;;;;4177005;28;21340;-75
2023/02/26 06:37:19;;;;;;;8.23;1.17;;;-0.90;99.90;;;;;;4173470;28;20466;-75
2023/02/26 06:39:21;;;;;;;7.27;0.93;;;-0.80;99.90;;;;;;4175350;28;20552;-74
2023/02/26 06:41:23;;;;;;;2.10;1.17;;;-0.80;99.90;;;;;;4157828;28;20482;-74
2023/02/26 06:43:25;;;;;;;2.33;0.90;;;-0.80;99.90;;;;;;4172985;28;20540;-75
2023/02/26 06:45:27;;;;;;;1.73;0.80;;;-0.80;99.90;;;;;;4174133;28;20525;-75
2023/02/26 06:47:29;;;;;;;4.00;0.90;;;-0.80;99.90;;;;;;4175072;28;20569;-75
2023/02/26 06:49:31;;;;;;;2.50;0.80;;;-0.80;99.90;;;;;;4174094;28;20605;-75
2023/02/26 06:51:33;;;;;;;5.40;1.20;;;-0.80;99.90;;;;;;4175805;28;20449;-73
2023/02/26 06:53:36;;;;;;;1.90;0.80;;;-0.70;99.90;;;;;;4159254;28;20482;-74
2023/02/26 06:55:43;;;;;;;2.20;0.97;;;-0.80;99.90;;;;;;4175327;28;20568;-74
2023/02/26 06:57:45;;;;;;;3.10;0.90;;;-0.80;99.90;;;;;;4176138;28;20569;-73
2023/02/26 06:59:47;;;;;;;2.63;0.90;;;-0.70;99.90;;;;;;4176798;28;21002;-75
2023/02/26 07:01:50;;;;;;;2.20;0.93;;;-0.70;99.90;;;;;;4173378;28;20523;-73
2023/02/26 07:03:52;;;;;;;2.27;1.10;;;-0.70;99.90;;;;;;4176301;28;20462;-73
2023/02/26 07:05:55;;;;;;;7.33;1.10;;;-0.70;99.90;;;;;;4173988;28;20518;-72
2023/02/26 07:07:57;;;;;;;1.67;0.87;;;-0.70;99.90;;;;;;4175144;28;20537;-73
2023/02/26 07:10:00;;;;;;;5.80;1.20;;;-0.70;99.90;;;;;;4174092;28;21082;-74
2023/02/26 07:12:02;;;;;;;3.03;0.90;;;-0.70;99.90;;;;;;4178219;28;20485;-74
2023/02/26 07:14:04;;;;;;;2.93;0.80;;;-0.70;99.90;;;;;;4180195;28;20536;-74
2023/02/26 07:16:06;;;;;;;2.93;1.03;;;-0.40;99.90;;;;;;4178724;28;20619;-74
2023/02/26 07:18:08;;;;;;;2.50;0.83;;;-0.60;99.90;;;;;;4177825;28;20536;-75
2023/02/26 07:20:12;;;;;;;2.03;0.73;;;-0.60;99.90;;;;;;4177650;28;20533;-74
2023/02/26 07:22:15;;;;;;;5.03;1.10;;;-0.60;99.90;;;;;;4176765;28;20456;-74
2023/02/26 07:24:17;;;;;;;4.50;1.10;;;-0.60;99.90;;;;;;4175415;28;20462;-73
2023/02/26 07:26:20;;;;;;;5.27;0.80;;;-0.60;99.90;;;;;;4176002;28;20890;-72
2023/02/26 07:28:22;;;;;;;3.53;1.00;;;-0.50;99.90;;;;;;4177167;28;20499;-74
2023/02/26 07:30:24;;;;;;;2.87;1.00;;;-0.50;99.90;;;;;;4177214;28;20517;-74
2023/02/26 07:32:26;;;;;;;2.77;0.90;;;-0.50;99.90;;;;;;4175020;28;20489;-74
2023/02/26 07:34:28;;;;;;;4.47;0.90;;;-0.50;99.90;;;;;;4176701;28;20454;-74
2023/02/26 07:36:30;;;;;;;2.30;1.10;;;-0.50;99.90;;;;;;4174287;28;20466;-73
2023/02/26 07:38:32;;;;;;;1.40;0.80;;;-0.40;99.90;;;;;;4176208;28;20899;-74
2023/02/26 07:40:34;;;;;;;1.93;0.90;;;-0.50;99.90;;;;;;4175202;28;21127;-74
2023/02/26 07:42:37;;;;;;;6.47;1.00;;;-0.50;99.90;;;;;;4176458;28;21178;-74
2023/02/26 07:44:39;;;;;;;2.70;0.80;;;-0.50;99.90;;;;;;4175532;28;20586;-74
2023/02/26 07:46:41;;;;;;;4.10;1.00;;;-0.40;99.90;;;;;;4175003;28;20520;-74
2023/02/26 07:48:43;;;;;;;2.37;0.77;;;-0.50;99.90;;;;;;4173649;28;21066;-75
2023/02/26 07:50:45;;;;;;;2.23;1.07;;;-0.50;99.90;;;;;;4176532;28;21014;-75
2023/02/26 07:52:47;;;;;;;4.27;1.40;;;-0.40;99.90;;;;;;4172418;28;20833;-72
2023/02/26 07:54:49;;;;;;;5.17;1.27;;;-0.40;99.90;;;;;;4173976;28;20933;-74
2023/02/26 07:56:51;;;;;;;4.33;1.57;;;-0.40;99.90;;;;;;4175418;28;20541;-74
2023/02/26 07:58:55;;;;;;;2.13;1.10;;;-0.30;99.90;;;;;;4175177;28;20550;-74
2023/02/26 08:00:58;;;;;;;2.27;0.87;;;-0.30;99.90;;;;;;4175655;28;20495;-72
2023/02/26 08:03:00;;;;;;;2.10;0.93;;;-0.30;99.90;;;;;;4176278;28;20468;-73
2023/02/26 08:05:02;;;;;;;2.07;0.90;;;-0.30;99.90;;;;;;4173514;28;20457;-73
2023/02/26 08:07:04;;;;;;;1.63;1.00;;;-0.30;99.90;;;;;;4175325;28;20533;-71
2023/02/26 08:09:06;;;;;;;2.37;0.90;;;-0.30;99.90;;;;;;4176829;28;20541;-72
2023/02/26 08:11:08;;;;;;;1.40;0.80;;;-0.30;99.90;;;;;;4162669;28;21162;-72
2023/02/26 08:13:10;;;;;;;5.03;1.10;;;-0.20;99.90;;;;;;4177920;28;20860;-72
2023/02/26 08:15:13;;;;;;;1.93;1.07;;;-0.20;99.90;;;;;;4174709;28;20508;-76
2023/02/26 08:17:15;;;;;;;2.83;1.00;;;-0.20;99.90;;;;;;4178865;28;20461;-71
2023/02/26 08:19:17;;;;;;;3.13;1.00;;;-0.20;99.90;;;;;;4160250;28;20463;-73
2023/02/26 08:21:19;;;;;;;2.00;0.93;;;-0.20;99.90;;;;;;4177907;28;20491;-71
2023/02/26 08:23:21;;;;;;;2.07;1.03;;;-0.10;99.90;;;;;;4176455;28;20463;-75
2023/02/26 08:25:23;;;;;;;3.07;0.87;;;-0.10;99.90;;;;;;4156885;28;20546;-70
2023/02/26 08:27:25;;;;;;;2.90;1.00;;;-0.10;99.90;;;;;;4174840;28;20542;-70
2023/02/26 08:29:27;;;;;;;1.43;0.87;;;-0.10;99.90;;;;;;4175105;28;21026;-71
2023/02/26 08:31:33;;;;;;;4.10;0.83;;;-0.10;99.90;;;;;;4178461;28;20573;-71
2023/02/26 08:33:35;;;;;;;2.07;0.80;;;-0.10;99.90;;;;;;4166893;28;20972;-70
2023/02/26 08:35:37;;;;;;;1.90;0.97;;;-0.10;99.90;;;;;;4178464;28;20471;-70
2023/02/26 08:37:39;;;;;;;3.80;1.00;;;-0.10;99.90;;;;;;4171481;28;20485;-70
2023/02/26 08:39:41;;;;;;;4.13;1.23;;;-0.10;99.90;;;;;;4180269;28;20547;-71
2023/02/26 08:41:43;;;;;;;7.97;2.40;;;-0.10;99.90;;;;;;4176152;28;20553;-69
2023/02/26 08:43:45;;;;;;;6.63;1.73;;;-0.10;99.90;;;;;;4180156;28;20533;-71
2023/02/26 08:45:47;;;;;;;2.57;1.23;;;0.00;99.90;;;;;;4179339;28;20490;-70
2023/02/26 08:47:52;;;;;;;5.27;1.40;;;0.00;99.90;;;;;;4176925;28;20459;-73
2023/02/26 08:49:53;;;;;;;4.63;1.30;;;0.00;99.90;;;;;;4161432;28;20825;-73
2023/02/26 08:51:55;;;;;;;5.90;1.40;;;0.00;99.90;;;;;;4176912;28;21119;-70
2023/02/26 08:53:57;;;;;;;2.00;1.13;;;0.00;99.90;;;;;;4178188;28;20460;-70
2023/02/26 08:55:59;;;;;;;2.60;1.20;;;0.00;99.90;;;;;;4175011;28;21152;-72
2023/02/26 08:58:01;;;;;;;3.53;1.63;;;0.00;99.90;;;;;;4176672;28;20532;-72
2023/02/26 09:00:09;;;;;;;3.97;1.27;;;0.00;99.90;;;;;;4177188;28;20488;-74
2023/02/26 09:02:11;;;;;;;3.13;1.50;;;0.00;99.90;;;;;;4178578;28;20885;-73
2023/02/26 09:04:14;;;;;;;3.67;1.40;;;0.00;99.90;;;;;;4179129;28;20456;-76
2023/02/26 09:06:16;;;;;;;7.50;2.10;;;0.00;99.90;;;;;;4173251;28;20504;-73
2023/02/26 09:08:19;;;;;;;4.50;1.70;;;0.10;99.90;;;;;;4176760;28;20448;-73
2023/02/26 09:10:21;;;;;;;4.10;1.50;;;0.00;99.90;;;;;;4172270;28;20516;-72
2023/02/26 09:12:23;;;;;;;4.17;1.57;;;0.00;99.90;;;;;;4172697;28;20533;-72
2023/02/26 09:14:25;;;;;;;3.37;1.23;;;0.10;99.90;;;;;;4177445;28;20987;-73
2023/02/26 09:16:28;;;;;;;5.27;1.57;;;0.00;99.90;;;;;;4168697;28;20464;-73
2023/02/26 09:18:29;;;;;;;2.90;1.20;;;0.10;99.90;;;;;;4175537;28;21002;-72
2023/02/26 09:20:33;;;;;;;3.80;1.50;;;0.00;99.90;;;;;;4173690;28;20452;-74
2023/02/26 09:22:35;;;;;;;3.60;1.30;;;0.10;99.90;;;;;;4159197;28;20513;-72
2023/02/26 09:24:37;;;;;;;3.53;1.20;;;0.10;99.90;;;;;;4173255;28;20484;-74
2023/02/26 09:26:39;;;;;;;3.63;1.40;;;0.00;99.90;;;;;;4173356;28;20828;-74
2023/02/26 09:28:41;;;;;;;4.87;1.37;;;0.10;99.90;;;;;;4172120;28;20540;-71
2023/02/26 09:30:43;;;;;;;5.27;1.40;;;0.10;99.90;;;;;;4174636;28;20476;-73
2023/02/26 09:32:44;;;;;;;4.87;1.67;;;0.20;99.90;;;;;;4176978;28;21184;-72
2023/02/26 09:34:46;;;;;;;2.97;1.17;;;0.20;99.90;;;;;;4171656;28;20562;-70
2023/02/26 09:36:50;;;;;;;3.57;1.37;;;0.20;99.90;;;;;;4171255;28;20460;-71
2023/02/26 09:38:51;;;;;;;4.30;1.27;;;0.20;99.90;;;;;;4174829;28;20543;-71
2023/02/26 09:40:57;;;;;;;2.23;1.23;;;0.20;99.90;;;;;;4174404;28;20554;-71
2023/02/26 09:43:12;;;;;;;3.00;1.03;;;0.20;99.90;;;;;;4175880;28;20479;-74
2023/02/26 09:45:22;;;;;;;3.00;1.57;;;0.20;99.90;;;;;;4169049;28;20515;-69
2023/02/26 09:47:28;;;;;;;5.07;1.80;;;0.30;99.90;;;;;;4171033;28;21017;-70
2023/02/26 09:49:42;;;;;;;3.83;1.17;;;0.30;99.90;;;;;;4177866;28;20464;-75
2023/02/26 09:51:46;;;;;;;5.33;1.63;;;0.30;99.90;;;;;;4179656;28;20863;-70
2023/02/26 09:53:50;;;;;;;5.17;1.40;;;0.30;99.90;;;;;;4178214;28;20564;-72
2023/02/26 09:55:56;;;;;;;2.10;1.20;;;0.30;99.90;;;;;;4176928;28;20504;-75
2023/02/26 09:58:02;;;;;;;3.70;1.10;;;0.40;99.90;;;;;;4170140;28;20536;-72
2023/02/26 10:00:17;;;;;;;2.20;0.97;;;0.30;99.90;;;;;;4175025;28;20449;-74
2023/02/26 10:02:27;;;;;;;3.60;0.93;;;0.50;99.90;;;;;;4176855;28;20503;-72
2023/02/26 10:04:50;;;;;;;2.57;1.00;;;0.40;99.90;;;;;;4162367;28;20463;-71
2023/02/26 10:07:04;;;;;;;4.13;1.20;;;0.40;99.90;;;;;;4175342;28;20520;-75
2023/02/26 10:09:20;;;;;;;4.83;1.50;;;0.50;99.90;;;;;;4178002;28;20533;-80
2023/02/26 10:11:29;;;;;;;4.37;1.50;;;0.50;99.90;;;;;;4175176;28;20487;-74
2023/02/26 10:13:36;;;;;;;4.13;1.37;;;0.50;99.90;;;;;;4179155;28;20463;-74
2023/02/26 10:15:42;;;;;;;4.30;1.30;;;0.60;99.90;;;;;;4176818;28;20489;-73
2023/02/26 10:17:59;;;;;;;4.20;1.10;;;0.60;99.90;;;;;;4173620;28;20940;-74
2023/02/26 10:20:04;;;;;;;2.00;1.00;;;0.60;99.90;;;;;;4179085;28;20495;-73
2023/02/26 10:22:16;;;;;;;1.67;0.97;;;0.60;99.90;;;;;;4175457;28;20445;-75
2023/02/26 10:24:23;;;;;;;8.10;1.10;;;0.60;99.90;;;;;;4175338;28;20547;-71
2023/02/26 10:26:29;;;;;;;1.33;0.80;;;0.70;99.90;;;;;;4177422;28;20463;-71
2023/02/26 10:28:42;;;;;;;4.13;1.10;;;0.70;99.90;;;;;;4159164;28;20955;-74
2023/02/26 10:30:51;;;;;;;1.17;0.87;;;0.70;99.90;;;;;;4176024;28;20472;-73
2023/02/26 10:33:01;;;;;;;3.33;1.30;;;0.80;99.90;;;;;;4158308;28;20453;-72
2023/02/26 10:35:07;;;;;;;2.47;1.30;;;0.80;99.90;;;;;;4176094;28;20580;-74
2023/02/26 10:37:18;;;;;;;5.43;1.20;;;0.80;99.90;;;;;;4173257;28;20465;-74
2023/02/26 10:39:30;;;;;;;2.67;1.00;;;0.90;99.90;;;;;;4175235;28;20448;-75
2023/02/26 10:41:36;;;;;;;2.23;1.00;;;0.90;99.90;;;;;;4176413;28;20507;-75
2023/02/26 10:43:40;;;;;;;3.83;1.27;;;0.90;99.90;;;;;;4178145;28;20946;-75
2023/02/26 10:45:54;;;;;;;2.30;1.07;;;0.90;99.90;;;;;;4176582;28;20520;-77
2023/02/26 10:48:09;;;;;;;2.33;0.87;;;0.90;99.90;;;;;;4168787;28;20448;-70
2023/02/26 10:50:13;;;;;;;1.53;0.90;;;1.00;99.90;;;;;;4176588;28;20984;-74